Krasnye Baki, Russia
Current Conditions -  °F | °C
As of 9:00 PM on Monday 20 Oct 2014 (Local Time) from UWGG Reporting Station
Overcast Overcast  
Wind Chill: 24°   Ceiling: 1500
Heat Index: 30°   Visibility: 6mi
Dew Point: 27°   Wind: 7mph
Humidity: 86%   Direction: 80°E
Pressure: 29.47"   Gusts: NA
Location:  57.13°N, 45.17°E
Report Text: UWGG 201800Z 08003MPS 9000 OVC015 M01/M03 Q0998 TEMPO 1500 SNFZRA OVC005 36290050 RMK QFE741
Loading
Personal Weather Stations






























Interactive Weather Map
Tropical Storm Tracking
New forecast layout! Learn more

10-Day Weather Forecast

Advertisements
Track Severe Weather on mobile